Latest Weather Observations for Horsley Park

IDN60901

Issued at 8:41 pm EST Thursday 24 August 2017 (issued every 10 minutes, with the page automatically refreshed every 10 minutes)

About weather observations | Map of Sydney area stations | Latest observations for Sydney area | Other Formats
Station Details ID: 067119 Name: HORSLEY PARK EQUESTRIAN CENTRE AWS Lat: -33.85 Lon: 150.86 Height: 100.0 m
Data from the previous 72 hours. | See also: Recent months at Horsley Park
Date/Time
EST
Temp
°C
App
Temp
°C
Dew
Point
°C
Rel
Hum
%
Delta-T
°C
Wind Press
QNH
hPa
Press
MSL
hPa
Rain since
9am
mm
Dir  Spd
km/h
Gust
km/h
Spd
kts
Gust
kts
24/08:30pm 11.4 9.2 5.3 66 2.8 WSW 6 9 3 5 - - 0.0
24/08:00pm 12.2 9.3 4.7 60 3.4 SW 9 13 5 7 - - 0.0
24/07:30pm 12.3 9.4 4.5 59 3.6 SSW 9 15 5 8 - - 0.0
24/07:00pm 12.4 9.2 4.9 60 3.5 S 11 20 6 11 - - 0.0
24/06:30pm 12.6 8.6 4.8 59 3.6 S 15 24 8 13 - - 0.0
24/06:00pm 12.8 9.3 5.5 61 3.4 S 13 22 7 12 - - 0.0
24/05:30pm 13.1 9.3 5.8 61 3.5 S 15 28 8 15 - - 0.0
24/05:00pm 13.5 9.3 5.7 59 3.7 SSE 17 30 9 16 - - 0.0
24/04:30pm 14.4 10.2 5.7 56 4.2 SSE 17 32 9 17 - - 0.0
24/04:00pm 14.6 10.1 5.9 56 4.2 SSE 19 32 10 17 - - 0.0
24/03:30pm 14.9 11.1 5.7 54 4.4 SSE 15 26 8 14 - - 0.0
24/03:00pm 15.2 10.9 5.4 52 4.7 SE 17 26 9 14 - - 0.0
24/02:30pm 15.6 11.3 5.2 50 5.0 SSE 17 26 9 14 - - 0.0
24/02:00pm 16.0 11.3 5.9 51 4.9 SE 20 30 11 16 - - 0.0
24/01:30pm 16.8 13.3 5.4 47 5.5 SSE 13 20 7 11 - - 0.0
24/01:00pm 16.8 13.7 5.4 47 5.5 S 11 19 6 10 - - 0.0
24/12:30pm 16.4 12.5 5.4 48 5.3 S 15 24 8 13 - - 0.0
24/12:00pm 17.3 13.4 1.3 34 7.1 SW 11 20 6 11 - - 0.0
24/11:30am 17.5 13.3 1.9 35 7.0 S 13 20 7 11 - - 0.0
24/11:00am 17.1 12.7 2.7 38 6.6 SSW 15 24 8 13 - - 0.0
24/10:30am 16.6 11.9 3.0 40 6.2 SSW 17 22 9 12 - - 0.0
24/10:00am 15.7 11.0 3.2 43 5.7 SSW 17 28 9 15 - - 0.0
24/09:30am 14.4 10.1 3.5 48 5.0 SW 15 26 8 14 - - 0.0
24/09:00am 13.5 10.4 3.8 52 4.4 WSW 9 17 5 9 - - 0.0
24/08:30am 12.2 9.4 3.4 55 3.9 W 7 13 4 7 - - 0.0
24/08:00am 11.2 9.0 3.5 59 3.4 WSW 4 9 2 5 - - 0.0
24/07:30am 10.6 7.8 3.4 61 3.2 WSW 7 9 4 5 - - 0.0
24/07:00am 9.7 7.4 3.0 63 2.9 SW 4 7 2 4 - - 0.0
24/06:30am 9.2 6.5 2.5 63 2.8 SW 6 7 3 4 - - 0.0
24/06:00am 10.2 7.3 2.8 60 3.2 SW 7 9 4 5 - - 0.0
24/05:30am 10.1 7.7 2.2 58 3.4 SW 4 7 2 4 - - 0.0
24/05:00am 11.5 8.6 2.5 54 3.9 SW 7 11 4 6 - - 0.0
24/04:30am 11.8 7.5 3.1 55 3.8 SW 15 22 8 12 - - 0.0
24/04:00am 10.1 7.4 2.9 61 3.1 SW 6 9 3 5 - - 0.0
24/03:30am 10.9 8.3 3.0 58 3.5 SW 6 9 3 5 - - 0.0
24/03:00am 11.6 9.0 3.1 56 3.7 SW 6 9 3 5 - - 0.0
24/02:30am 11.6 8.8 3.1 56 3.7 SSW 7 11 4 6 - - 0.0
24/02:00am 12.2 8.4 3.7 56 3.8 SW 13 19 7 10 - - 0.0
24/01:30am 11.2 8.0 3.0 57 3.6 SSW 9 13 5 7 - - 0.0
24/01:00am 11.9 8.3 3.2 55 3.9 SSW 11 15 6 8 - - 0.0
24/12:30am 12.6 9.1 3.3 53 4.2 SSW 11 15 6 8 - - 0.0
24/12:00am 12.7 9.0 4.2 56 3.9 SW 13 19 7 10 - - 0.0
 
Date/Time
EST
Temp
°C
App
Temp
°C
Dew
Point
°C
Rel
Hum
%
Delta-T
°C
Wind Press
QNH
hPa
Press
MSL
hPa
Rain since
9am
mm
Dir  Spd
km/h
Gust
km/h
Spd
kts
Gust
kts
23/11:30pm 13.0 9.9 5.4 60 3.6 SSW 11 17 6 9 - - 0.0
23/11:00pm 11.4 9.4 8.6 83 1.4 SSW 9 13 5 7 - - 0.0
23/10:30pm 11.9 11.1 9.8 87 1.1 SW 4 6 2 3 - - 0.0
23/10:00pm 12.7 11.7 10.4 86 1.2 SSW 6 7 3 4 - - 0.0
23/09:30pm 11.8 11.9 10.0 89 0.9 CALM 0 2 0 1 - - 0.0
23/09:00pm 12.4 12.2 10.5 88 1.0 SSW 2 4 1 2 - - 0.0
23/08:30pm 12.1 10.7 8.9 81 1.6 SSW 6 7 3 4 - - 0.0
23/08:00pm 13.3 12.7 10.5 83 1.5 SW 4 11 2 6 - - 0.0
23/07:30pm 13.6 13.8 10.6 82 1.6 CALM 0 2 0 1 - - 0.0
23/07:00pm 14.7 13.7 10.3 75 2.3 ENE 6 7 3 4 - - 0.0
23/06:30pm 15.4 13.9 10.4 72 2.6 SE 9 11 5 6 - - 0.0
23/06:00pm 16.4 14.4 10.3 67 3.2 SE 11 15 6 8 - - 0.0
23/05:30pm 17.5 15.9 10.1 62 3.9 ESE 9 15 5 8 - - 0.0
23/05:00pm 18.7 16.6 9.8 56 4.7 E 11 15 6 8 - - 0.0
23/04:30pm 20.4 18.7 8.4 46 6.3 E 7 11 4 6 - - 0.0
23/04:00pm 21.8 20.0 1.5 26 9.4 CALM 0 2 0 1 - - 0.0
23/03:30pm 22.1 20.7 3.3 29 9.0 CALM 0 4 0 2 - - 0.0
23/03:00pm 21.8 19.6 3.5 30 8.8 N 4 7 2 4 - - 0.0
23/02:30pm 21.4 18.9 4.0 32 8.4 NE 6 9 3 5 - - 0.0
23/02:00pm 21.1 19.0 5.9 37 7.6 NE 6 13 3 7 - - 0.0
23/01:30pm 20.8 19.7 6.7 40 7.2 ENE 2 11 1 6 - - 0.0
23/01:00pm 20.0 18.4 6.4 41 6.8 NNW 4 7 2 4 - - 0.0
23/12:30pm 19.7 18.7 7.4 45 6.3 ENE 2 6 1 3 - - 0.0
23/12:00pm 18.4 16.8 8.1 51 5.3 NE 6 13 3 7 - - 0.0
23/11:30am 17.4 16.3 8.3 55 4.7 NW 4 9 2 5 - - 0.0
23/11:00am 16.8 15.6 8.0 56 4.5 NNW 4 9 2 5 - - 0.0
23/10:30am 15.1 13.7 7.2 59 3.9 NW 4 7 2 4 - - 0.0
23/10:00am 14.1 13.0 6.7 61 3.6 WNW 2 6 1 3 - - 0.0
23/09:30am 12.3 10.5 5.5 63 3.2 WNW 4 6 2 3 - - 0.0
23/09:00am 11.2 9.0 5.1 66 2.8 W 6 9 3 5 - - 0.0
23/08:30am 10.2 8.4 5.2 71 2.3 W 4 6 2 3 - - 0.0
23/08:00am 9.2 7.7 5.0 75 1.9 W 2 6 1 3 - - 0.0
23/07:30am 7.7 6.4 5.8 88 0.9 WSW 2 7 1 4 - - 0.0
23/07:00am 5.0 3.8 4.4 96 0.3 CALM 0 0 0 0 - - 0.0
23/06:30am 4.1 2.6 3.1 93 0.4 CALM 0 0 0 0 - - 0.0
23/06:00am 4.5 3.0 3.2 91 0.5 CALM 0 0 0 0 - - 0.0
23/05:30am 5.3 3.9 3.6 89 0.7 CALM 0 0 0 0 - - 0.0
23/05:00am 5.3 3.9 3.5 88 0.8 CALM 0 4 0 2 - - 0.0
23/04:30am 6.0 3.4 4.2 88 0.8 SW 7 11 4 6 - - 0.0
23/04:00am 6.0 4.0 4.6 91 0.6 WSW 4 6 2 3 - - 0.0
23/03:30am 5.4 4.0 3.4 87 0.8 CALM 0 2 0 1 - - 0.0
23/03:00am 6.1 4.9 4.6 90 0.7 CALM 0 4 0 2 - - 0.0
23/02:30am 5.8 4.5 4.1 89 0.7 CALM 0 0 0 0 - - 0.0
23/02:00am 6.3 5.1 4.5 88 0.8 CALM 0 0 0 0 - - 0.0
23/01:30am 6.7 5.5 4.7 87 0.9 CALM 0 0 0 0 - - 0.0
23/01:00am 7.1 5.9 4.6 84 1.1 CALM 0 0 0 0 - - 0.0
23/12:30am 7.5 6.4 5.0 84 1.1 CALM 0 0 0 0 - - 0.0
23/12:00am 7.4 6.2 4.4 81 1.3 CALM 0 0 0 0 - - 0.0
 
Date/Time
EST
Temp
°C
App
Temp
°C
Dew
Point
°C
Rel
Hum
%
Delta-T
°C
Wind Press
QNH
hPa
Press
MSL
hPa
Rain since
9am
mm
Dir  Spd
km/h
Gust
km/h
Spd
kts
Gust
kts
22/11:30pm 8.6 7.5 5.2 79 1.5 CALM 0 0 0 0 - - 0.0
22/11:00pm 8.7 7.6 4.9 77 1.7 CALM 0 0 0 0 - - 0.0
22/10:30pm 9.4 8.4 5.6 77 1.7 CALM 0 0 0 0 - - 0.0
22/10:00pm 9.6 8.6 5.4 75 1.9 CALM 0 0 0 0 - - 0.0
22/09:30pm 9.2 8.1 5.2 76 1.8 CALM 0 0 0 0 - - 0.0
22/09:00pm 10.1 9.1 5.5 73 2.1 CALM 0 0 0 0 - - 0.0
22/08:30pm 10.1 8.7 5.3 72 2.2 WSW 2 4 1 2 - - 0.0
22/08:00pm 9.8 8.6 4.4 69 2.4 CALM 0 0 0 0 - - 0.0
22/07:30pm 12.1 10.3 5.3 63 3.2 E 4 4 2 2 - - 0.0
22/07:00pm 12.2 9.7 4.9 61 3.4 E 7 9 4 5 - - 0.0
22/06:30pm 12.9 10.6 4.6 57 3.8 ESE 6 9 3 5 - - 0.0
22/06:00pm 13.7 11.2 4.6 54 4.2 E 7 13 4 7 - - 0.0
22/05:30pm 14.6 12.0 4.3 50 4.8 E 7 11 4 6 - - 0.0
22/05:00pm 15.6 11.8 4.0 46 5.4 ESE 13 20 7 11 - - 0.0
22/04:30pm 16.5 12.6 3.6 42 6.0 ESE 13 20 7 11 - - 0.0
22/04:00pm 17.4 13.3 4.4 42 6.2 ESE 15 20 8 11 - - 0.0
22/03:30pm 18.5 15.7 3.2 36 7.2 E 7 17 4 9 - - 0.0
22/03:00pm 18.8 16.2 0.9 30 8.0 NNE 4 9 2 5 - - 0.0
22/02:30pm 19.2 17.1 1.7 31 8.0 NE 2 7 1 4 - - 0.0
22/02:00pm 19.2 17.2 2.1 32 7.9 NNE 2 9 1 5 - - 0.0
22/01:30pm 18.9 16.6 2.7 34 7.5 N 4 7 2 4 - - 0.0
22/01:00pm 18.7 16.4 2.5 34 7.5 WNW 4 9 2 5 - - 0.0
22/12:30pm 18.5 16.2 2.8 35 7.3 NNW 4 9 2 5 - - 0.0
22/12:00pm 17.2 14.5 2.8 38 6.6 W 6 11 3 6 - - 0.0
22/11:30am 17.1 14.5 3.1 39 6.5 NW 6 13 3 7 - - 0.0
22/11:00am 16.6 14.5 4.0 43 5.9 W 4 7 2 4 - - 0.0
22/10:30am 15.3 12.9 4.1 47 5.2 W 6 11 3 6 - - 0.0
22/10:00am 14.2 11.7 4.8 53 4.4 W 7 11 4 6 - - 0.0
22/09:30am 13.6 11.4 5.5 58 3.8 W 6 9 3 5 - - 0.0
22/09:00am 12.2 9.9 4.9 61 3.4 WSW 6 9 3 5 - - 0.0
22/08:30am 10.7 7.8 4.8 67 2.7 SW 9 17 5 9 - - 0.0
22/08:00am 9.7 6.0 4.5 70 2.3 SW 13 19 7 10 - - 0.0
22/07:30am 9.3 6.4 4.9 74 2.0 SW 9 11 5 6 - - 0.0
22/07:00am 7.8 5.3 4.6 80 1.4 SW 7 11 4 6 - - 0.0
22/06:30am 7.7 5.1 4.1 78 1.6 WSW 7 13 4 7 - - 0.0
22/06:00am 8.3 5.7 4.1 75 1.8 SW 7 13 4 7 - - 0.0
22/05:30am 8.4 5.5 4.4 76 1.8 SW 9 11 5 6 - - 0.0
22/05:00am 8.1 5.4 5.6 84 1.1 SW 9 13 5 7 - - 0.0
22/04:30am 6.3 4.3 4.5 88 0.8 SW 4 6 2 3 - - 0.0
22/04:00am 6.5 5.3 4.7 88 0.8 CALM 0 0 0 0 - - 0.0
22/03:30am 7.3 6.1 4.6 83 1.2 CALM 0 0 0 0 - - 0.0
22/03:00am 7.9 6.8 5.0 82 1.3 CALM 0 0 0 0 - - 0.0
22/02:30am 8.4 7.2 4.8 78 1.6 CALM 0 0 0 0 - - 0.0
22/02:00am 9.5 7.6 5.1 74 2.0 SW 4 7 2 4 - - 0.0
22/01:30am 9.2 7.7 5.2 76 1.8 SW 2 6 1 3 - - 0.0
22/01:00am 9.6 8.5 5.2 74 2.0 CALM 0 0 0 0 - - 0.0
22/12:30am 9.7 8.2 4.9 72 2.2 S 2 6 1 3 - - 0.0
22/12:00am 10.1 8.2 4.9 70 2.4 S 4 6 2 3 - - 0.0
 
Date/Time
EST
Temp
°C
App
Temp
°C
Dew
Point
°C
Rel
Hum
%
Delta-T
°C
Wind Press
QNH
hPa
Press
MSL
hPa
Rain since
9am
mm
Dir  Spd
km/h
Gust
km/h
Spd
kts
Gust
kts
21/11:30pm 10.9 9.7 4.8 66 2.8 CALM 0 0 0 0 - - 0.0
21/11:00pm 11.2 9.0 5.1 66 2.8 S 6 9 3 5 - - 0.0
21/10:30pm 11.4 9.0 5.3 66 2.8 SSW 7 15 4 8 - - 0.0
21/10:00pm 11.5 9.2 5.6 67 2.7 SSW 7 11 4 6 - - 0.0
21/09:30pm 11.9 9.9 6.2 68 2.7 S 6 9 3 5 - - 0.0
21/09:00pm 11.8 9.7 6.7 71 2.4 SSW 7 11 4 6 - - 0.0

Latest Capital City Observations: Canberra | Sydney | Melbourne | Brisbane | Adelaide | Perth | Hobart | Darwin

Other Formats:

Comma delimited format used in spreadsheet applications
http://www.bom.gov.au/fwo/IDN60901/IDN60901.94760.axf

JavaScript Object Notation format (JSON) in row-major order
http://www.bom.gov.au/fwo/IDN60901/IDN60901.94760.json